sensor_id;sensor_type;location;lat;lon;timestamp;P1;durP1;ratioP1;P2;durP2;ratioP2
28968;SDS011;16076;51.194;6.642;2022-11-23T00:01:27;8.27;;;2.20;;
28968;SDS011;16076;51.194;6.642;2022-11-23T00:03:55;5.07;;;2.00;;
28968;SDS011;16076;51.194;6.642;2022-11-23T00:06:24;10.98;;;2.20;;
28968;SDS011;16076;51.194;6.642;2022-11-23T00:08:50;4.30;;;1.67;;
28968;SDS011;16076;51.194;6.642;2022-11-23T00:11:17;4.53;;;1.70;;
28968;SDS011;16076;51.194;6.642;2022-11-23T00:13:44;4.07;;;1.85;;
28968;SDS011;16076;51.194;6.642;2022-11-23T00:16:14;5.45;;;2.88;;
28968;SDS011;16076;51.194;6.642;2022-11-23T00:18:45;6.93;;;2.25;;
28968;SDS011;16076;51.194;6.642;2022-11-23T00:21:12;5.13;;;1.90;;
28968;SDS011;16076;51.194;6.642;2022-11-23T00:23:39;7.90;;;2.70;;
28968;SDS011;16076;51.194;6.642;2022-11-23T00:26:06;5.32;;;1.73;;
28968;SDS011;16076;51.194;6.642;2022-11-23T00:28:32;8.55;;;1.90;;
28968;SDS011;16076;51.194;6.642;2022-11-23T00:31:01;4.65;;;1.63;;
28968;SDS011;16076;51.194;6.642;2022-11-23T00:33:26;6.47;;;1.85;;
28968;SDS011;16076;51.194;6.642;2022-11-23T00:35:59;8.75;;;2.00;;
28968;SDS011;16076;51.194;6.642;2022-11-23T00:38:32;5.90;;;1.95;;
28968;SDS011;16076;51.194;6.642;2022-11-23T00:41:04;4.38;;;1.80;;
28968;SDS011;16076;51.194;6.642;2022-11-23T00:43:33;5.78;;;1.50;;
28968;SDS011;16076;51.194;6.642;2022-11-23T00:48:30;5.20;;;1.90;;
28968;SDS011;16076;51.194;6.642;2022-11-23T00:50:56;3.10;;;1.40;;
28968;SDS011;16076;51.194;6.642;2022-11-23T00:53:22;5.30;;;1.83;;
28968;SDS011;16076;51.194;6.642;2022-11-23T00:55:53;4.75;;;1.88;;
28968;SDS011;16076;51.194;6.642;2022-11-23T00:58:19;6.32;;;1.60;;
28968;SDS011;16076;51.194;6.642;2022-11-23T01:00:46;5.18;;;1.90;;
28968;SDS011;16076;51.194;6.642;2022-11-23T01:03:12;9.15;;;1.98;;
28968;SDS011;16076;51.194;6.642;2022-11-23T01:05:41;11.75;;;1.55;;
28968;SDS011;16076;51.194;6.642;2022-11-23T01:08:09;8.73;;;1.70;;
28968;SDS011;16076;51.194;6.642;2022-11-23T01:10:34;4.40;;;1.73;;
28968;SDS011;16076;51.194;6.642;2022-11-23T01:13:00;10.05;;;2.15;;
28968;SDS011;16076;51.194;6.642;2022-11-23T01:15:25;7.82;;;1.77;;
28968;SDS011;16076;51.194;6.642;2022-11-23T01:17:53;3.60;;;1.55;;
28968;SDS011;16076;51.194;6.642;2022-11-23T01:20:19;6.53;;;1.98;;
28968;SDS011;16076;51.194;6.642;2022-11-23T01:22:44;9.75;;;1.88;;
28968;SDS011;16076;51.194;6.642;2022-11-23T01:25:10;8.63;;;1.83;;
28968;SDS011;16076;51.194;6.642;2022-11-23T01:27:35;6.57;;;1.52;;
28968;SDS011;16076;51.194;6.642;2022-11-23T01:30:03;3.70;;;1.73;;
28968;SDS011;16076;51.194;6.642;2022-11-23T01:32:29;6.20;;;1.92;;
28968;SDS011;16076;51.194;6.642;2022-11-23T01:34:55;6.18;;;1.65;;
28968;SDS011;16076;51.194;6.642;2022-11-23T01:37:20;10.18;;;1.75;;
28968;SDS011;16076;51.194;6.642;2022-11-23T01:39:46;3.58;;;1.80;;
28968;SDS011;16076;51.194;6.642;2022-11-23T01:42:12;6.63;;;2.70;;
28968;SDS011;16076;51.194;6.642;2022-11-23T01:44:40;8.98;;;1.92;;
28968;SDS011;16076;51.194;6.642;2022-11-23T01:47:06;4.93;;;1.52;;
28968;SDS011;16076;51.194;6.642;2022-11-23T01:49:35;5.63;;;1.88;;
28968;SDS011;16076;51.194;6.642;2022-11-23T01:52:11;9.90;;;2.15;;
28968;SDS011;16076;51.194;6.642;2022-11-23T01:54:48;7.60;;;1.70;;
28968;SDS011;16076;51.194;6.642;2022-11-23T01:57:16;9.70;;;2.40;;
28968;SDS011;16076;51.194;6.642;2022-11-23T01:59:46;7.25;;;2.20;;
28968;SDS011;16076;51.194;6.642;2022-11-23T02:02:13;6.90;;;1.88;;
28968;SDS011;16076;51.194;6.642;2022-11-23T02:04:41;6.93;;;1.98;;
28968;SDS011;16076;51.194;6.642;2022-11-23T02:07:11;5.03;;;1.65;;
28968;SDS011;16076;51.194;6.642;2022-11-23T02:09:38;8.18;;;2.67;;
28968;SDS011;16076;51.194;6.642;2022-11-23T02:12:09;8.65;;;1.95;;
28968;SDS011;16076;51.194;6.642;2022-11-23T02:14:35;4.53;;;1.70;;
28968;SDS011;16076;51.194;6.642;2022-11-23T02:17:01;10.65;;;1.77;;
28968;SDS011;16076;51.194;6.642;2022-11-23T02:22:09;11.90;;;2.33;;
28968;SDS011;16076;51.194;6.642;2022-11-23T02:24:48;9.93;;;4.05;;
28968;SDS011;16076;51.194;6.642;2022-11-23T02:27:18;35.90;;;13.88;;
28968;SDS011;16076;51.194;6.642;2022-11-23T02:29:44;45.45;;;18.83;;
28968;SDS011;16076;51.194;6.642;2022-11-23T02:32:15;51.22;;;19.77;;
28968;SDS011;16076;51.194;6.642;2022-11-23T02:37:09;23.70;;;8.95;;
28968;SDS011;16076;51.194;6.642;2022-11-23T02:39:41;19.20;;;8.15;;
28968;SDS011;16076;51.194;6.642;2022-11-23T02:42:11;24.83;;;8.85;;
28968;SDS011;16076;51.194;6.642;2022-11-23T02:47:27;15.13;;;4.07;;
28968;SDS011;16076;51.194;6.642;2022-11-23T02:49:53;18.75;;;4.20;;
28968;SDS011;16076;51.194;6.642;2022-11-23T02:52:18;13.57;;;3.00;;
28968;SDS011;16076;51.194;6.642;2022-11-23T02:54:44;9.10;;;3.40;;
28968;SDS011;16076;51.194;6.642;2022-11-23T02:57:13;8.68;;;3.17;;
28968;SDS011;16076;51.194;6.642;2022-11-23T02:59:39;8.65;;;2.92;;
28968;SDS011;16076;51.194;6.642;2022-11-23T03:02:04;10.68;;;3.35;;
28968;SDS011;16076;51.194;6.642;2022-11-23T03:04:32;16.85;;;3.45;;
28968;SDS011;16076;51.194;6.642;2022-11-23T03:06:58;10.65;;;3.15;;
28968;SDS011;16076;51.194;6.642;2022-11-23T03:09:23;8.77;;;2.80;;
28968;SDS011;16076;51.194;6.642;2022-11-23T03:11:50;7.28;;;3.25;;
28968;SDS011;16076;51.194;6.642;2022-11-23T03:14:16;20.95;;;5.30;;
28968;SDS011;16076;51.194;6.642;2022-11-23T03:16:42;8.30;;;5.22;;
28968;SDS011;16076;51.194;6.642;2022-11-23T03:19:08;14.27;;;4.38;;
28968;SDS011;16076;51.194;6.642;2022-11-23T03:21:33;13.40;;;4.05;;
28968;SDS011;16076;51.194;6.642;2022-11-23T03:23:59;10.27;;;3.45;;
28968;SDS011;16076;51.194;6.642;2022-11-23T03:26:25;9.02;;;2.55;;
28968;SDS011;16076;51.194;6.642;2022-11-23T03:28:50;13.27;;;3.50;;
28968;SDS011;16076;51.194;6.642;2022-11-23T03:31:16;14.93;;;3.25;;
28968;SDS011;16076;51.194;6.642;2022-11-23T03:33:41;5.18;;;3.00;;
28968;SDS011;16076;51.194;6.642;2022-11-23T03:36:07;10.90;;;2.70;;
28968;SDS011;16076;51.194;6.642;2022-11-23T03:38:33;10.02;;;2.67;;
28968;SDS011;16076;51.194;6.642;2022-11-23T03:40:58;8.50;;;3.42;;
28968;SDS011;16076;51.194;6.642;2022-11-23T03:43:26;7.53;;;2.35;;
28968;SDS011;16076;51.194;6.642;2022-11-23T03:45:52;13.82;;;2.85;;
28968;SDS011;16076;51.194;6.642;2022-11-23T03:48:17;9.27;;;3.50;;
28968;SDS011;16076;51.194;6.642;2022-11-23T03:50:43;9.48;;;2.90;;
28968;SDS011;16076;51.194;6.642;2022-11-23T03:53:09;10.00;;;2.90;;
28968;SDS011;16076;51.194;6.642;2022-11-23T03:55:35;15.27;;;2.97;;
28968;SDS011;16076;51.194;6.642;2022-11-23T03:58:00;14.98;;;2.50;;
28968;SDS011;16076;51.194;6.642;2022-11-23T04:00:27;12.02;;;3.72;;
28968;SDS011;16076;51.194;6.642;2022-11-23T04:02:53;8.93;;;2.40;;
28968;SDS011;16076;51.194;6.642;2022-11-23T04:05:19;13.77;;;2.92;;
28968;SDS011;16076;51.194;6.642;2022-11-23T04:07:45;15.60;;;2.70;;
28968;SDS011;16076;51.194;6.642;2022-11-23T04:10:13;16.55;;;3.47;;
28968;SDS011;16076;51.194;6.642;2022-11-23T04:12:42;16.40;;;3.20;;
28968;SDS011;16076;51.194;6.642;2022-11-23T04:15:08;8.73;;;2.38;;
28968;SDS011;16076;51.194;6.642;2022-11-23T04:17:34;6.53;;;2.38;;
28968;SDS011;16076;51.194;6.642;2022-11-23T04:19:59;10.77;;;2.50;;
28968;SDS011;16076;51.194;6.642;2022-11-23T04:22:25;32.33;;;13.20;;
28968;SDS011;16076;51.194;6.642;2022-11-23T04:24:53;18.23;;;5.93;;
28968;SDS011;16076;51.194;6.642;2022-11-23T04:27:18;16.13;;;5.55;;
28968;SDS011;16076;51.194;6.642;2022-11-23T04:29:44;15.57;;;3.72;;
28968;SDS011;16076;51.194;6.642;2022-11-23T04:32:09;10.60;;;3.92;;
28968;SDS011;16076;51.194;6.642;2022-11-23T04:34:35;9.95;;;4.22;;
28968;SDS011;16076;51.194;6.642;2022-11-23T04:37:01;12.13;;;3.38;;
28968;SDS011;16076;51.194;6.642;2022-11-23T04:39:29;16.85;;;3.25;;
28968;SDS011;16076;51.194;6.642;2022-11-23T04:41:57;13.48;;;2.75;;
28968;SDS011;16076;51.194;6.642;2022-11-23T04:44:22;12.65;;;3.47;;
28968;SDS011;16076;51.194;6.642;2022-11-23T04:46:48;7.60;;;2.42;;
28968;SDS011;16076;51.194;6.642;2022-11-23T04:49:14;17.00;;;3.28;;
28968;SDS011;16076;51.194;6.642;2022-11-23T04:51:40;12.85;;;2.78;;
28968;SDS011;16076;51.194;6.642;2022-11-23T04:54:05;7.57;;;2.22;;
28968;SDS011;16076;51.194;6.642;2022-11-23T04:56:31;13.52;;;3.13;;
28968;SDS011;16076;51.194;6.642;2022-11-23T04:58:57;7.05;;;1.80;;
28968;SDS011;16076;51.194;6.642;2022-11-23T05:01:22;13.25;;;2.97;;
28968;SDS011;16076;51.194;6.642;2022-11-23T05:03:48;6.47;;;2.35;;
28968;SDS011;16076;51.194;6.642;2022-11-23T05:06:13;9.75;;;2.45;;
28968;SDS011;16076;51.194;6.642;2022-11-23T05:08:39;11.13;;;2.95;;
28968;SDS011;16076;51.194;6.642;2022-11-23T05:11:05;11.50;;;2.50;;
28968;SDS011;16076;51.194;6.642;2022-11-23T05:13:33;8.07;;;2.50;;
28968;SDS011;16076;51.194;6.642;2022-11-23T05:15:58;7.22;;;2.50;;
28968;SDS011;16076;51.194;6.642;2022-11-23T05:18:24;11.75;;;2.90;;
28968;SDS011;16076;51.194;6.642;2022-11-23T05:20:50;10.20;;;2.28;;
28968;SDS011;16076;51.194;6.642;2022-11-23T05:23:15;8.30;;;3.08;;
28968;SDS011;16076;51.194;6.642;2022-11-23T05:25:41;10.75;;;5.05;;
28968;SDS011;16076;51.194;6.642;2022-11-23T05:28:08;8.55;;;4.15;;
28968;SDS011;16076;51.194;6.642;2022-11-23T05:30:39;12.45;;;8.55;;
28968;SDS011;16076;51.194;6.642;2022-11-23T05:33:04;18.80;;;10.40;;
28968;SDS011;16076;51.194;6.642;2022-11-23T05:35:30;44.38;;;22.33;;
28968;SDS011;16076;51.194;6.642;2022-11-23T05:37:56;24.70;;;11.40;;
28968;SDS011;16076;51.194;6.642;2022-11-23T05:40:21;27.20;;;13.48;;
28968;SDS011;16076;51.194;6.642;2022-11-23T05:42:53;18.17;;;11.50;;
28968;SDS011;16076;51.194;6.642;2022-11-23T05:45:22;16.98;;;6.22;;
28968;SDS011;16076;51.194;6.642;2022-11-23T05:47:51;14.35;;;3.45;;
28968;SDS011;16076;51.194;6.642;2022-11-23T05:50:21;8.52;;;2.03;;
28968;SDS011;16076;51.194;6.642;2022-11-23T05:52:47;13.93;;;2.53;;
28968;SDS011;16076;51.194;6.642;2022-11-23T05:55:13;10.85;;;2.08;;
28968;SDS011;16076;51.194;6.642;2022-11-23T05:57:39;11.55;;;2.50;;
28968;SDS011;16076;51.194;6.642;2022-11-23T06:00:06;15.43;;;2.42;;
28968;SDS011;16076;51.194;6.642;2022-11-23T06:02:34;14.27;;;4.63;;
28968;SDS011;16076;51.194;6.642;2022-11-23T06:05:00;9.70;;;4.22;;
28968;SDS011;16076;51.194;6.642;2022-11-23T06:07:28;12.25;;;3.38;;
28968;SDS011;16076;51.194;6.642;2022-11-23T06:09:56;11.15;;;2.90;;
28968;SDS011;16076;51.194;6.642;2022-11-23T06:12:21;17.73;;;6.05;;
28968;SDS011;16076;51.194;6.642;2022-11-23T06:14:47;12.68;;;4.88;;
28968;SDS011;16076;51.194;6.642;2022-11-23T06:17:13;11.77;;;4.35;;
28968;SDS011;16076;51.194;6.642;2022-11-23T06:19:40;10.93;;;2.80;;
28968;SDS011;16076;51.194;6.642;2022-11-23T06:22:08;10.18;;;2.60;;
28968;SDS011;16076;51.194;6.642;2022-11-23T06:24:34;9.93;;;2.30;;
28968;SDS011;16076;51.194;6.642;2022-11-23T06:27:00;9.52;;;2.22;;
28968;SDS011;16076;51.194;6.642;2022-11-23T06:29:25;15.25;;;2.25;;
28968;SDS011;16076;51.194;6.642;2022-11-23T06:31:51;13.27;;;3.60;;
28968;SDS011;16076;51.194;6.642;2022-11-23T06:34:18;10.80;;;2.42;;
28968;SDS011;16076;51.194;6.642;2022-11-23T06:36:46;14.23;;;2.35;;
28968;SDS011;16076;51.194;6.642;2022-11-23T06:39:11;14.38;;;2.70;;
28968;SDS011;16076;51.194;6.642;2022-11-23T06:41:37;8.27;;;2.35;;
28968;SDS011;16076;51.194;6.642;2022-11-23T06:44:03;11.80;;;2.45;;
28968;SDS011;16076;51.194;6.642;2022-11-23T06:46:29;13.88;;;2.55;;
28968;SDS011;16076;51.194;6.642;2022-11-23T06:48:55;4.00;;;2.03;;
28968;SDS011;16076;51.194;6.642;2022-11-23T06:51:21;12.95;;;2.25;;
28968;SDS011;16076;51.194;6.642;2022-11-23T06:53:47;5.57;;;1.92;;
28968;SDS011;16076;51.194;6.642;2022-11-23T06:56:12;9.40;;;2.17;;
28968;SDS011;16076;51.194;6.642;2022-11-23T06:58:38;10.50;;;2.15;;
28968;SDS011;16076;51.194;6.642;2022-11-23T07:01:05;12.65;;;2.15;;
28968;SDS011;16076;51.194;6.642;2022-11-23T07:03:32;7.65;;;2.03;;
28968;SDS011;16076;51.194;6.642;2022-11-23T07:06:02;10.40;;;1.92;;
28968;SDS011;16076;51.194;6.642;2022-11-23T07:08:31;7.35;;;1.95;;
28968;SDS011;16076;51.194;6.642;2022-11-23T07:11:01;6.80;;;2.40;;
28968;SDS011;16076;51.194;6.642;2022-11-23T07:13:27;10.23;;;2.50;;
28968;SDS011;16076;51.194;6.642;2022-11-23T07:15:53;10.48;;;2.85;;
28968;SDS011;16076;51.194;6.642;2022-11-23T07:18:18;8.77;;;1.98;;
28968;SDS011;16076;51.194;6.642;2022-11-23T07:20:44;9.43;;;1.83;;
28968;SDS011;16076;51.194;6.642;2022-11-23T07:23:10;7.43;;;2.08;;
28968;SDS011;16076;51.194;6.642;2022-11-23T07:25:36;10.73;;;2.22;;
28968;SDS011;16076;51.194;6.642;2022-11-23T07:28:02;9.10;;;2.67;;
28968;SDS011;16076;51.194;6.642;2022-11-23T07:30:30;6.88;;;2.08;;
28968;SDS011;16076;51.194;6.642;2022-11-23T07:33:00;15.02;;;2.58;;
28968;SDS011;16076;51.194;6.642;2022-11-23T07:35:26;8.10;;;2.90;;
28968;SDS011;16076;51.194;6.642;2022-11-23T07:37:52;13.10;;;2.45;;
28968;SDS011;16076;51.194;6.642;2022-11-23T07:40:18;10.15;;;2.28;;
28968;SDS011;16076;51.194;6.642;2022-11-23T07:42:44;11.45;;;3.60;;
28968;SDS011;16076;51.194;6.642;2022-11-23T07:45:09;6.22;;;2.28;;
28968;SDS011;16076;51.194;6.642;2022-11-23T07:47:36;15.63;;;2.60;;
28968;SDS011;16076;51.194;6.642;2022-11-23T07:50:03;12.43;;;2.20;;
28968;SDS011;16076;51.194;6.642;2022-11-23T07:52:32;9.30;;;2.33;;
28968;SDS011;16076;51.194;6.642;2022-11-23T07:54:59;6.82;;;1.80;;
28968;SDS011;16076;51.194;6.642;2022-11-23T07:57:25;5.28;;;1.80;;
28968;SDS011;16076;51.194;6.642;2022-11-23T07:59:53;11.73;;;2.03;;
28968;SDS011;16076;51.194;6.642;2022-11-23T08:02:19;7.90;;;2.13;;
28968;SDS011;16076;51.194;6.642;2022-11-23T08:04:45;5.88;;;2.17;;
28968;SDS011;16076;51.194;6.642;2022-11-23T08:07:11;5.85;;;2.72;;
28968;SDS011;16076;51.194;6.642;2022-11-23T08:09:36;8.57;;;2.53;;
28968;SDS011;16076;51.194;6.642;2022-11-23T08:12:04;15.93;;;4.10;;
28968;SDS011;16076;51.194;6.642;2022-11-23T08:14:30;11.50;;;2.67;;
28968;SDS011;16076;51.194;6.642;2022-11-23T08:16:58;15.05;;;4.10;;
28968;SDS011;16076;51.194;6.642;2022-11-23T08:19:24;8.90;;;3.25;;
28968;SDS011;16076;51.194;6.642;2022-11-23T08:21:49;11.38;;;3.13;;
28968;SDS011;16076;51.194;6.642;2022-11-23T08:24:15;10.50;;;3.83;;
28968;SDS011;16076;51.194;6.642;2022-11-23T08:26:43;10.95;;;3.50;;
28968;SDS011;16076;51.194;6.642;2022-11-23T08:29:08;11.02;;;2.33;;
28968;SDS011;16076;51.194;6.642;2022-11-23T08:31:34;7.40;;;2.35;;
28968;SDS011;16076;51.194;6.642;2022-11-23T08:34:00;13.00;;;3.67;;
28968;SDS011;16076;51.194;6.642;2022-11-23T08:36:25;13.52;;;3.08;;
28968;SDS011;16076;51.194;6.642;2022-11-23T08:38:51;6.55;;;2.38;;
28968;SDS011;16076;51.194;6.642;2022-11-23T08:41:18;9.18;;;2.60;;
28968;SDS011;16076;51.194;6.642;2022-11-23T08:43:49;14.10;;;2.63;;
28968;SDS011;16076;51.194;6.642;2022-11-23T08:46:15;14.00;;;2.03;;
28968;SDS011;16076;51.194;6.642;2022-11-23T08:48:41;10.57;;;2.30;;
28968;SDS011;16076;51.194;6.642;2022-11-23T08:51:07;9.75;;;2.38;;
28968;SDS011;16076;51.194;6.642;2022-11-23T08:53:33;13.27;;;2.22;;
28968;SDS011;16076;51.194;6.642;2022-11-23T08:56:00;7.18;;;2.13;;
28968;SDS011;16076;51.194;6.642;2022-11-23T08:58:29;7.90;;;2.67;;
28968;SDS011;16076;51.194;6.642;2022-11-23T09:00:55;5.88;;;2.10;;
28968;SDS011;16076;51.194;6.642;2022-11-23T09:03:20;11.98;;;2.30;;
28968;SDS011;16076;51.194;6.642;2022-11-23T09:05:46;10.45;;;3.05;;
28968;SDS011;16076;51.194;6.642;2022-11-23T09:08:12;12.93;;;2.40;;
28968;SDS011;16076;51.194;6.642;2022-11-23T09:10:40;11.82;;;2.53;;
28968;SDS011;16076;51.194;6.642;2022-11-23T09:13:05;13.65;;;2.97;;
28968;SDS011;16076;51.194;6.642;2022-11-23T09:15:34;14.48;;;2.63;;
28968;SDS011;16076;51.194;6.642;2022-11-23T09:18:00;10.93;;;2.72;;
28968;SDS011;16076;51.194;6.642;2022-11-23T09:20:25;9.95;;;2.50;;
28968;SDS011;16076;51.194;6.642;2022-11-23T09:22:52;12.60;;;2.65;;
28968;SDS011;16076;51.194;6.642;2022-11-23T09:25:18;9.52;;;2.50;;
28968;SDS011;16076;51.194;6.642;2022-11-23T09:27:44;12.13;;;2.78;;
28968;SDS011;16076;51.194;6.642;2022-11-23T09:30:10;11.18;;;2.38;;
28968;SDS011;16076;51.194;6.642;2022-11-23T09:32:36;13.43;;;2.70;;
28968;SDS011;16076;51.194;6.642;2022-11-23T09:35:01;12.98;;;2.35;;
28968;SDS011;16076;51.194;6.642;2022-11-23T09:37:27;8.32;;;2.50;;
28968;SDS011;16076;51.194;6.642;2022-11-23T09:39:57;15.32;;;2.90;;
28968;SDS011;16076;51.194;6.642;2022-11-23T09:42:36;12.32;;;3.42;;
28968;SDS011;16076;51.194;6.642;2022-11-23T09:53:09;13.57;;;3.13;;
28968;SDS011;16076;51.194;6.642;2022-11-23T09:55:41;11.27;;;2.60;;
28968;SDS011;16076;51.194;6.642;2022-11-23T09:58:12;17.85;;;3.20;;
28968;SDS011;16076;51.194;6.642;2022-11-23T10:03:23;11.18;;;3.17;;
28968;SDS011;16076;51.194;6.642;2022-11-23T10:05:53;9.70;;;2.30;;
28968;SDS011;16076;51.194;6.642;2022-11-23T10:08:45;14.18;;;2.60;;
28968;SDS011;16076;51.194;6.642;2022-11-23T10:22:34;12.25;;;2.92;;
28968;SDS011;16076;51.194;6.642;2022-11-23T10:25:15;14.85;;;1.83;;
28968;SDS011;16076;51.194;6.642;2022-11-23T10:27:44;12.95;;;2.45;;
28968;SDS011;16076;51.194;6.642;2022-11-23T10:30:13;13.95;;;2.35;;
28968;SDS011;16076;51.194;6.642;2022-11-23T10:32:57;8.25;;;2.38;;
28968;SDS011;16076;51.194;6.642;2022-11-23T10:35:43;18.83;;;2.72;;
28968;SDS011;16076;51.194;6.642;2022-11-23T10:40:52;20.45;;;2.80;;
28968;SDS011;16076;51.194;6.642;2022-11-23T10:43:31;11.38;;;2.15;;
28968;SDS011;16076;51.194;6.642;2022-11-23T10:46:21;10.30;;;2.60;;
28968;SDS011;16076;51.194;6.642;2022-11-23T10:48:47;12.95;;;2.50;;
28968;SDS011;16076;51.194;6.642;2022-11-23T10:51:18;9.25;;;2.60;;
28968;SDS011;16076;51.194;6.642;2022-11-23T10:53:57;6.72;;;2.17;;
28968;SDS011;16076;51.194;6.642;2022-11-23T10:56:26;8.95;;;2.25;;
28968;SDS011;16076;51.194;6.642;2022-11-23T10:58:52;8.30;;;2.63;;
28968;SDS011;16076;51.194;6.642;2022-11-23T11:01:19;9.80;;;2.20;;
28968;SDS011;16076;51.194;6.642;2022-11-23T11:03:48;10.05;;;1.92;;
28968;SDS011;16076;51.194;6.642;2022-11-23T11:06:21;10.60;;;2.15;;
28968;SDS011;16076;51.194;6.642;2022-11-23T11:08:52;12.48;;;3.22;;
28968;SDS011;16076;51.194;6.642;2022-11-23T11:11:26;7.85;;;1.98;;
28968;SDS011;16076;51.194;6.642;2022-11-23T11:14:05;12.95;;;2.80;;
28968;SDS011;16076;51.194;6.642;2022-11-23T11:16:45;14.80;;;2.63;;
28968;SDS011;16076;51.194;6.642;2022-11-23T11:21:54;10.77;;;1.60;;
28968;SDS011;16076;51.194;6.642;2022-11-23T11:27:04;10.27;;;2.13;;
28968;SDS011;16076;51.194;6.642;2022-11-23T11:37:42;4.50;;;1.60;;
28968;SDS011;16076;51.194;6.642;2022-11-23T11:45:43;9.80;;;2.40;;
28968;SDS011;16076;51.194;6.642;2022-11-23T11:50:55;9.40;;;1.98;;
28968;SDS011;16076;51.194;6.642;2022-11-23T11:53:30;10.50;;;2.65;;
28968;SDS011;16076;51.194;6.642;2022-11-23T11:58:41;9.68;;;1.80;;
28968;SDS011;16076;51.194;6.642;2022-11-23T12:01:24;11.52;;;2.05;;
28968;SDS011;16076;51.194;6.642;2022-11-23T12:03:51;7.35;;;1.80;;
28968;SDS011;16076;51.194;6.642;2022-11-23T12:06:28;11.10;;;2.45;;
28968;SDS011;16076;51.194;6.642;2022-11-23T12:09:06;7.82;;;2.13;;
28968;SDS011;16076;51.194;6.642;2022-11-23T12:11:35;4.75;;;1.63;;
28968;SDS011;16076;51.194;6.642;2022-11-23T12:14:01;5.53;;;1.70;;
28968;SDS011;16076;51.194;6.642;2022-11-23T12:19:26;4.43;;;1.70;;
28968;SDS011;16076;51.194;6.642;2022-11-23T12:42:20;8.32;;;1.77;;
28968;SDS011;16076;51.194;6.642;2022-11-23T12:47:40;3.35;;;1.60;;
28968;SDS011;16076;51.194;6.642;2022-11-23T12:52:56;9.88;;;1.70;;
28968;SDS011;16076;51.194;6.642;2022-11-23T12:55:41;8.13;;;1.60;;
28968;SDS011;16076;51.194;6.642;2022-11-23T12:58:29;9.02;;;1.67;;
28968;SDS011;16076;51.194;6.642;2022-11-23T13:01:09;4.63;;;1.73;;
28968;SDS011;16076;51.194;6.642;2022-11-23T13:06:33;4.20;;;1.80;;
28968;SDS011;16076;51.194;6.642;2022-11-23T13:12:22;7.03;;;1.55;;
28968;SDS011;16076;51.194;6.642;2022-11-23T13:15:43;6.47;;;1.63;;
28968;SDS011;16076;51.194;6.642;2022-11-23T13:23:19;6.80;;;1.50;;
28968;SDS011;16076;51.194;6.642;2022-11-23T13:26:10;5.25;;;1.63;;
28968;SDS011;16076;51.194;6.642;2022-11-23T13:28:40;7.28;;;1.77;;
28968;SDS011;16076;51.194;6.642;2022-11-23T13:33:53;7.13;;;1.52;;
28968;SDS011;16076;51.194;6.642;2022-11-23T13:38:56;7.90;;;2.30;;
28968;SDS011;16076;51.194;6.642;2022-11-23T13:49:28;8.05;;;1.63;;
28968;SDS011;16076;51.194;6.642;2022-11-23T13:54:54;6.97;;;1.60;;
28968;SDS011;16076;51.194;6.642;2022-11-23T13:57:23;6.50;;;1.98;;
28968;SDS011;16076;51.194;6.642;2022-11-23T13:59:48;8.18;;;2.38;;
28968;SDS011;16076;51.194;6.642;2022-11-23T14:02:26;12.07;;;2.17;;
28968;SDS011;16076;51.194;6.642;2022-11-23T14:07:57;6.63;;;2.17;;
28968;SDS011;16076;51.194;6.642;2022-11-23T14:10:27;5.45;;;1.42;;
28968;SDS011;16076;51.194;6.642;2022-11-23T14:15:33;8.88;;;1.95;;
28968;SDS011;16076;51.194;6.642;2022-11-23T14:26:32;9.25;;;1.80;;
28968;SDS011;16076;51.194;6.642;2022-11-23T14:29:24;8.07;;;2.40;;
28968;SDS011;16076;51.194;6.642;2022-11-23T14:42:36;8.63;;;1.55;;
28968;SDS011;16076;51.194;6.642;2022-11-23T14:45:10;7.03;;;1.60;;
28968;SDS011;16076;51.194;6.642;2022-11-23T14:47:38;8.75;;;1.80;;
28968;SDS011;16076;51.194;6.642;2022-11-23T14:50:03;5.85;;;2.15;;
28968;SDS011;16076;51.194;6.642;2022-11-23T14:52:33;11.98;;;4.53;;
28968;SDS011;16076;51.194;6.642;2022-11-23T14:55:01;10.68;;;3.22;;
28968;SDS011;16076;51.194;6.642;2022-11-23T14:57:39;14.15;;;4.78;;
28968;SDS011;16076;51.194;6.642;2022-11-23T15:00:22;8.52;;;2.45;;
28968;SDS011;16076;51.194;6.642;2022-11-23T15:02:48;9.63;;;2.00;;
28968;SDS011;16076;51.194;6.642;2022-11-23T15:05:28;5.85;;;1.80;;
28968;SDS011;16076;51.194;6.642;2022-11-23T15:11:10;4.00;;;1.83;;
28968;SDS011;16076;51.194;6.642;2022-11-23T15:16:11;7.93;;;2.05;;
28968;SDS011;16076;51.194;6.642;2022-11-23T15:18:38;5.47;;;2.25;;
28968;SDS011;16076;51.194;6.642;2022-11-23T15:26:12;5.03;;;2.30;;
28968;SDS011;16076;51.194;6.642;2022-11-23T15:28:41;5.70;;;2.00;;
28968;SDS011;16076;51.194;6.642;2022-11-23T15:31:27;9.13;;;1.77;;
28968;SDS011;16076;51.194;6.642;2022-11-23T15:33:58;7.65;;;1.88;;
28968;SDS011;16076;51.194;6.642;2022-11-23T15:36:40;5.47;;;2.10;;
28968;SDS011;16076;51.194;6.642;2022-11-23T15:39:12;13.40;;;2.92;;
28968;SDS011;16076;51.194;6.642;2022-11-23T15:41:43;4.82;;;2.40;;
28968;SDS011;16076;51.194;6.642;2022-11-23T15:44:14;4.82;;;2.42;;
28968;SDS011;16076;51.194;6.642;2022-11-23T15:46:56;9.65;;;2.55;;
28968;SDS011;16076;51.194;6.642;2022-11-23T15:49:30;6.68;;;3.13;;
28968;SDS011;16076;51.194;6.642;2022-11-23T15:51:58;10.48;;;2.50;;
28968;SDS011;16076;51.194;6.642;2022-11-23T15:54:27;8.10;;;2.70;;
28968;SDS011;16076;51.194;6.642;2022-11-23T15:57:00;7.53;;;2.33;;
28968;SDS011;16076;51.194;6.642;2022-11-23T15:59:46;9.23;;;2.60;;
28968;SDS011;16076;51.194;6.642;2022-11-23T16:02:24;10.43;;;2.42;;
28968;SDS011;16076;51.194;6.642;2022-11-23T16:10:30;5.50;;;2.10;;
28968;SDS011;16076;51.194;6.642;2022-11-23T16:12:57;8.15;;;2.63;;
28968;SDS011;16076;51.194;6.642;2022-11-23T16:18:02;5.95;;;2.47;;
28968;SDS011;16076;51.194;6.642;2022-11-23T16:20:41;6.47;;;2.05;;
28968;SDS011;16076;51.194;6.642;2022-11-23T16:23:15;5.20;;;2.03;;
28968;SDS011;16076;51.194;6.642;2022-11-23T16:25:44;7.47;;;2.83;;
28968;SDS011;16076;51.194;6.642;2022-11-23T16:28:26;4.97;;;2.25;;
28968;SDS011;16076;51.194;6.642;2022-11-23T16:31:02;9.93;;;2.00;;
28968;SDS011;16076;51.194;6.642;2022-11-23T16:33:28;6.25;;;2.80;;
28968;SDS011;16076;51.194;6.642;2022-11-23T16:35:54;6.38;;;2.67;;
28968;SDS011;16076;51.194;6.642;2022-11-23T16:38:20;6.40;;;2.45;;
28968;SDS011;16076;51.194;6.642;2022-11-23T16:40:47;6.47;;;2.15;;
28968;SDS011;16076;51.194;6.642;2022-11-23T16:43:14;8.88;;;2.67;;
28968;SDS011;16076;51.194;6.642;2022-11-23T16:45:43;5.80;;;2.80;;
28968;SDS011;16076;51.194;6.642;2022-11-23T16:50:51;8.47;;;3.23;;
28968;SDS011;16076;51.194;6.642;2022-11-23T16:53:18;11.38;;;4.97;;
28968;SDS011;16076;51.194;6.642;2022-11-23T16:55:53;13.95;;;4.03;;
28968;SDS011;16076;51.194;6.642;2022-11-23T16:58:20;9.88;;;4.20;;
28968;SDS011;16076;51.194;6.642;2022-11-23T17:00:47;13.05;;;8.38;;
28968;SDS011;16076;51.194;6.642;2022-11-23T17:03:17;12.85;;;8.57;;
28968;SDS011;16076;51.194;6.642;2022-11-23T17:05:44;17.10;;;6.85;;
28968;SDS011;16076;51.194;6.642;2022-11-23T17:08:10;15.18;;;10.95;;
28968;SDS011;16076;51.194;6.642;2022-11-23T17:10:36;13.63;;;5.47;;
28968;SDS011;16076;51.194;6.642;2022-11-23T17:13:05;12.07;;;6.45;;
28968;SDS011;16076;51.194;6.642;2022-11-23T17:15:39;14.00;;;6.03;;
28968;SDS011;16076;51.194;6.642;2022-11-23T17:18:04;11.82;;;5.22;;
28968;SDS011;16076;51.194;6.642;2022-11-23T17:20:37;8.63;;;4.00;;
28968;SDS011;16076;51.194;6.642;2022-11-23T17:23:02;12.27;;;4.20;;
28968;SDS011;16076;51.194;6.642;2022-11-23T17:25:31;9.75;;;6.45;;
28968;SDS011;16076;51.194;6.642;2022-11-23T17:27:57;11.43;;;6.88;;
28968;SDS011;16076;51.194;6.642;2022-11-23T17:30:25;15.75;;;5.78;;
28968;SDS011;16076;51.194;6.642;2022-11-23T17:32:52;8.82;;;4.25;;